Time;durP1;ratioP1;P1;durP2;ratioP2;P2;SDS_P1;SDS_P2;PMS_P1;PMS_P2;Temp;Humidity;BMP_temperature;BMP_pressure;BME280_temperature;BME280_humidity;BME280_pressure;Samples;Min_cycle;Max_cycle;Signal;HPM_P1;HPM_P2
2021/08/30 00:01:13;;;;;;;12.23;9.77;;;13.60;99.90;;;;;;4971489;28;20141;-70
2021/08/30 00:03:40;;;;;;;14.40;11.25;;;13.60;99.90;;;;;;4971196;28;20046;-67
2021/08/30 00:06:08;;;;;;;12.52;9.45;;;13.60;99.90;;;;;;4973685;28;20396;-68
2021/08/30 00:08:34;;;;;;;12.35;9.35;;;13.60;99.90;;;;;;4972145;28;20062;-69
2021/08/30 00:11:01;;;;;;;11.57;9.68;;;13.60;99.90;;;;;;4972555;28;20173;-73
2021/08/30 00:13:28;;;;;;;13.65;9.68;;;13.60;99.90;;;;;;4972056;28;20145;-68
2021/08/30 00:15:56;;;;;;;12.68;10.05;;;13.60;99.90;;;;;;4971317;28;20551;-68
2021/08/30 00:18:24;;;;;;;17.70;10.13;;;13.60;99.90;;;;;;4972680;28;20460;-66
2021/08/30 00:20:52;;;;;;;11.70;9.77;;;13.60;99.90;;;;;;4972567;28;20147;-65
2021/08/30 00:23:19;;;;;;;12.13;9.70;;;13.60;99.90;;;;;;4969636;28;20145;-68
2021/08/30 00:25:46;;;;;;;9.82;8.77;;;13.60;99.90;;;;;;4970946;28;20141;-67
2021/08/30 00:28:13;;;;;;;12.13;9.13;;;13.50;99.90;;;;;;4971823;28;20054;-69
2021/08/30 00:30:40;;;;;;;10.18;9.07;;;13.50;99.90;;;;;;4973476;28;20151;-65
2021/08/30 00:33:07;;;;;;;13.93;9.70;;;13.30;99.90;;;;;;4969394;28;20050;-67
2021/08/30 00:35:34;;;;;;;11.77;8.80;;;13.30;99.90;;;;;;4973445;28;20875;-70
2021/08/30 00:38:01;;;;;;;12.10;8.43;;;13.20;99.90;;;;;;4968887;28;20165;-66
2021/08/30 00:40:28;;;;;;;15.77;12.00;;;13.20;99.90;;;;;;4970959;28;20592;-64
2021/08/30 00:42:55;;;;;;;9.75;7.85;;;13.20;99.90;;;;;;4971330;28;20137;-68
2021/08/30 00:45:22;;;;;;;10.57;9.48;;;13.10;99.90;;;;;;4970911;28;20168;-66
2021/08/30 00:47:49;;;;;;;16.98;12.20;;;13.10;99.90;;;;;;4969310;28;20168;-69
2021/08/30 00:50:16;;;;;;;13.57;9.95;;;13.20;99.90;;;;;;4973066;28;20378;-65
2021/08/30 00:52:44;;;;;;;15.77;10.25;;;13.10;99.90;;;;;;4970656;28;20124;-64
2021/08/30 00:55:14;;;;;;;13.60;9.38;;;13.10;99.90;;;;;;4969750;28;20078;-66
2021/08/30 00:57:41;;;;;;;11.02;9.80;;;13.10;99.90;;;;;;4969583;28;20141;-70
2021/08/30 01:00:10;;;;;;;16.02;10.65;;;13.10;99.90;;;;;;4973013;28;20141;-66
2021/08/30 01:02:41;;;;;;;13.85;9.32;;;13.10;99.90;;;;;;4972729;23;20039;-71
2021/08/30 01:05:11;;;;;;;11.13;9.13;;;13.10;99.90;;;;;;4952681;28;20051;-72
2021/08/30 01:08:07;;;;;;;11.93;9.82;;;13.10;99.90;;;;;;4952658;28;20047;-72
2021/08/30 01:10:52;;;;;;;11.73;10.30;;;13.20;99.90;;;;;;4950732;28;20456;-70
2021/08/30 01:13:48;;;;;;;12.32;9.52;;;13.20;99.90;;;;;;4952521;28;20126;-69
2021/08/30 01:16:17;;;;;;;12.95;8.73;;;13.30;99.90;;;;;;4951015;28;20453;-73
2021/08/30 01:18:48;;;;;;;13.02;9.75;;;13.30;99.90;;;;;;4952235;28;20109;-67
2021/08/30 01:21:15;;;;;;;14.10;10.45;;;13.30;99.90;;;;;;4952313;28;20525;-69
2021/08/30 01:23:46;;;;;;;15.23;9.52;;;13.30;99.90;;;;;;4950782;28;20051;-71
2021/08/30 01:26:14;;;;;;;11.73;9.52;;;13.30;99.90;;;;;;4952251;28;20055;-68
2021/08/30 01:29:00;;;;;;;9.10;7.25;;;13.30;99.90;;;;;;4952161;28;20434;-67
2021/08/30 01:31:38;;;;;;;12.10;8.50;;;13.40;99.90;;;;;;4952247;28;20043;-87
2021/08/30 01:34:06;;;;;;;14.90;9.82;;;13.30;99.90;;;;;;4951036;28;20207;-73
2021/08/30 01:36:35;;;;;;;11.35;9.05;;;13.40;99.90;;;;;;4952575;28;20102;-74
2021/08/30 01:39:03;;;;;;;11.90;10.35;;;13.40;99.90;;;;;;4952326;28;20043;-73
2021/08/30 01:41:31;;;;;;;12.50;9.90;;;13.40;99.90;;;;;;4951966;28;20082;-73
2021/08/30 01:43:59;;;;;;;10.43;9.15;;;13.40;99.90;;;;;;4950773;28;20071;-72
2021/08/30 01:46:26;;;;;;;14.95;9.10;;;13.40;99.90;;;;;;4951950;28;20055;-74
2021/08/30 01:48:54;;;;;;;9.60;8.60;;;13.40;99.90;;;;;;4952345;28;20071;-71
2021/08/30 01:51:24;;;;;;;16.38;9.40;;;13.40;99.90;;;;;;4951957;28;20055;-68
2021/08/30 01:53:52;;;;;;;;;;;13.50;99.90;;;;;;4934089;28;20047;-87
2021/08/30 01:56:21;;;;;;;13.85;10.27;;;13.50;99.90;;;;;;4952321;28;19930;-72
2021/08/30 02:01:35;;;;;;;12.52;9.63;;;13.50;99.90;;;;;;4951996;28;20051;-68
2021/08/30 02:04:03;;;;;;;13.77;9.82;;;13.50;99.90;;;;;;4950668;28;20074;-76
2021/08/30 02:06:32;;;;;;;14.10;9.43;;;13.60;99.90;;;;;;4951802;28;20071;-73
2021/08/30 02:09:00;;;;;;;12.60;10.48;;;13.60;99.90;;;;;;4951898;28;20086;-67
2021/08/30 02:11:34;;;;;;;12.55;10.18;;;13.60;99.90;;;;;;4952162;28;20110;-67
2021/08/30 02:14:04;;;;;;;10.52;8.57;;;13.60;99.90;;;;;;4950262;28;20067;-69
2021/08/30 02:16:31;;;;;;;13.60;10.38;;;13.60;99.90;;;;;;4952014;28;20106;-71
2021/08/30 02:19:24;;;;;;;11.90;9.85;;;13.60;99.90;;;;;;4951555;28;20051;-75
2021/08/30 02:22:00;;;;;;;10.55;8.63;;;13.60;99.90;;;;;;4950437;28;20075;-74
2021/08/30 02:24:49;;;;;;;14.63;9.40;;;13.60;99.90;;;;;;4955054;28;20083;-67
2021/08/30 02:27:32;;;;;;;17.05;10.02;;;13.60;99.90;;;;;;4955196;28;20501;-72
2021/08/30 02:30:08;;;;;;;11.68;9.75;;;13.60;99.90;;;;;;4953790;28;20523;-67
2021/08/30 02:32:37;;;;;;;13.20;10.07;;;13.60;99.90;;;;;;4955595;28;20106;-69
2021/08/30 02:35:08;;;;;;;16.05;9.57;;;13.60;99.90;;;;;;4955139;28;20078;-67
2021/08/30 02:37:38;;;;;;;12.02;10.68;;;13.70;99.90;;;;;;4955476;28;20082;-70
2021/08/30 02:40:07;;;;;;;10.00;8.77;;;13.70;99.90;;;;;;4953867;28;20106;-76
2021/08/30 02:42:35;;;;;;;11.55;9.77;;;13.70;99.90;;;;;;4955144;28;20083;-75
2021/08/30 02:45:04;;;;;;;12.95;9.02;;;13.70;99.90;;;;;;4955216;28;20067;-75
2021/08/30 02:47:32;;;;;;;13.15;10.75;;;13.70;99.90;;;;;;4955119;28;20106;-86
2021/08/30 02:50:01;;;;;;;13.60;10.23;;;13.70;99.90;;;;;;4953285;28;20089;-67
2021/08/30 02:52:29;;;;;;;13.50;9.40;;;13.70;99.90;;;;;;4954691;28;20396;-67
2021/08/30 02:54:56;;;;;;;10.35;9.02;;;13.70;99.90;;;;;;4955029;28;20093;-74
2021/08/30 02:57:24;;;;;;;15.25;9.05;;;13.70;99.90;;;;;;4954898;28;20084;-75
2021/08/30 02:59:52;;;;;;;10.75;7.88;;;13.70;99.90;;;;;;4953353;28;20085;-69
2021/08/30 03:02:21;;;;;;;12.45;9.52;;;13.70;99.90;;;;;;4954779;28;20406;-76
2021/08/30 03:04:49;;;;;;;10.13;9.13;;;13.70;99.90;;;;;;4954598;28;20070;-68
2021/08/30 03:07:17;;;;;;;12.02;10.77;;;13.70;99.90;;;;;;4954863;28;20098;-88
2021/08/30 03:09:45;;;;;;;14.02;9.35;;;13.70;99.90;;;;;;4952854;28;20138;-75
2021/08/30 03:12:15;;;;;;;13.80;8.95;;;13.70;99.90;;;;;;4954580;28;20047;-67
2021/08/30 03:14:44;;;;;;;16.27;9.32;;;13.70;99.90;;;;;;4954533;28;20046;-73
2021/08/30 03:17:12;;;;;;;11.25;8.88;;;13.60;99.90;;;;;;4954743;28;20493;-85
2021/08/30 03:19:41;;;;;;;13.88;10.00;;;13.60;99.90;;;;;;4952764;28;20051;-67
2021/08/30 03:22:11;;;;;;;14.35;8.90;;;13.60;99.90;;;;;;4954174;28;20418;-72
2021/08/30 03:24:41;;;;;;;11.53;8.70;;;13.60;99.90;;;;;;4954638;28;20054;-74
2021/08/30 03:27:12;;;;;;;8.55;7.43;;;13.60;99.90;;;;;;4954277;28;20051;-70
2021/08/30 03:29:39;;;;;;;12.48;8.02;;;13.60;99.90;;;;;;4954468;28;20070;-78
2021/08/30 03:32:09;;;;;;;9.18;8.18;;;13.60;99.90;;;;;;4952469;28;20047;-67
2021/08/30 03:34:37;;;;;;;8.40;7.57;;;13.60;99.90;;;;;;4953836;28;20135;-69
2021/08/30 03:37:06;;;;;;;12.50;8.60;;;13.60;99.90;;;;;;4954249;28;20533;-75
2021/08/30 03:39:33;;;;;;;9.85;8.00;;;13.50;99.90;;;;;;4954193;28;20051;-69
2021/08/30 03:42:03;;;;;;;9.90;8.80;;;13.50;99.90;;;;;;4952736;28;20071;-74
2021/08/30 03:44:31;;;;;;;12.57;8.27;;;13.50;99.90;;;;;;4953969;28;20082;-72
2021/08/30 03:46:58;;;;;;;9.48;7.78;;;13.50;99.90;;;;;;4953524;28;20071;-70
2021/08/30 03:49:28;;;;;;;11.55;8.45;;;13.50;99.90;;;;;;4953951;28;20079;-70
2021/08/30 03:51:58;;;;;;;9.53;7.97;;;13.50;99.90;;;;;;4952522;28;20106;-70
2021/08/30 03:54:25;;;;;;;9.02;7.93;;;13.50;99.90;;;;;;4953715;28;20063;-70
2021/08/30 03:56:54;;;;;;;11.43;10.32;;;13.50;99.90;;;;;;4953395;28;20097;-73
2021/08/30 03:59:23;;;;;;;12.20;8.35;;;13.40;99.90;;;;;;4954158;28;20056;-70
2021/08/30 04:01:52;;;;;;;14.07;8.77;;;13.40;99.90;;;;;;4952246;28;20435;-77
2021/08/30 04:04:22;;;;;;;11.43;8.48;;;13.40;99.90;;;;;;4953533;28;20375;-68
2021/08/30 04:06:50;;;;;;;14.55;8.77;;;13.40;99.90;;;;;;4953715;28;20130;-69
2021/08/30 04:09:20;;;;;;;14.40;8.27;;;13.40;99.90;;;;;;4953509;28;20066;-72
2021/08/30 04:11:48;;;;;;;10.10;8.45;;;13.40;99.90;;;;;;4952055;28;20051;-73
2021/08/30 04:14:15;;;;;;;15.93;8.73;;;13.40;99.90;;;;;;4952936;28;20086;-68
2021/08/30 04:16:43;;;;;;;13.63;7.88;;;13.40;99.90;;;;;;4952800;28;20556;-80
2021/08/30 04:19:10;;;;;;;11.93;9.45;;;13.40;99.90;;;;;;4953634;28;20071;-71
2021/08/30 04:21:37;;;;;;;12.38;8.38;;;13.40;99.90;;;;;;4953366;28;20465;-69
2021/08/30 04:24:04;;;;;;;11.88;9.15;;;13.30;99.90;;;;;;4951968;28;20586;-73
2021/08/30 04:26:31;;;;;;;15.05;9.32;;;13.40;99.90;;;;;;4953168;28;20515;-67
2021/08/30 04:28:58;;;;;;;17.80;9.60;;;13.40;99.90;;;;;;4953218;28;20053;-69
2021/08/30 04:31:25;;;;;;;13.25;8.98;;;13.40;99.90;;;;;;4953480;28;20079;-69
2021/08/30 04:33:52;;;;;;;13.40;9.00;;;13.40;99.90;;;;;;4951777;28;20043;-70
2021/08/30 04:36:19;;;;;;;14.35;9.57;;;13.50;99.90;;;;;;4953019;28;20385;-69
2021/08/30 04:38:46;;;;;;;10.05;8.23;;;13.50;99.90;;;;;;4952973;28;20055;-75
2021/08/30 04:41:13;;;;;;;15.13;8.90;;;13.50;99.90;;;;;;4952964;28;20147;-68
2021/08/30 04:43:40;;;;;;;13.00;9.15;;;13.60;99.90;;;;;;4951182;28;20071;-67
2021/08/30 04:46:08;;;;;;;10.65;8.88;;;13.60;99.90;;;;;;4952054;28;20071;-67
2021/08/30 04:48:35;;;;;;;11.57;9.20;;;13.60;99.90;;;;;;4952712;28;20059;-82
2021/08/30 04:51:02;;;;;;;13.13;10.50;;;13.70;99.90;;;;;;4952988;28;20098;-67
2021/08/30 04:53:29;;;;;;;15.95;10.48;;;13.70;99.90;;;;;;4952385;28;20134;-75
2021/08/30 04:55:56;;;;;;;13.07;9.15;;;13.80;99.90;;;;;;4951188;28;20118;-69
2021/08/30 04:58:23;;;;;;;16.77;10.18;;;13.80;99.90;;;;;;4952520;28;20047;-67
2021/08/30 05:00:51;;;;;;;14.27;9.35;;;13.80;99.90;;;;;;4952702;28;20051;-72
2021/08/30 05:03:18;;;;;;;9.57;8.55;;;13.80;99.90;;;;;;4952544;28;20043;-69
2021/08/30 05:05:46;;;;;;;14.32;9.55;;;13.80;99.90;;;;;;4951255;28;20051;-73
2021/08/30 05:08:13;;;;;;;9.93;8.00;;;13.90;99.90;;;;;;4952632;28;20110;-75
2021/08/30 05:10:40;;;;;;;12.40;8.13;;;13.90;99.90;;;;;;4952787;28;20063;-68
2021/08/30 05:13:07;;;;;;;12.43;9.13;;;13.90;99.90;;;;;;4952516;28;20078;-71
2021/08/30 05:15:34;;;;;;;15.80;9.82;;;14.00;99.90;;;;;;4952719;28;20090;-75
2021/08/30 05:18:01;;;;;;;11.93;9.27;;;13.90;99.90;;;;;;4949719;28;20056;-71
2021/08/30 05:20:28;;;;;;;14.85;8.32;;;14.00;99.90;;;;;;4952777;28;20063;-69
2021/08/30 05:22:55;;;;;;;10.68;8.10;;;14.00;99.90;;;;;;4952528;28;20054;-69
2021/08/30 05:25:22;;;;;;;11.07;8.07;;;14.00;99.90;;;;;;4952755;28;20108;-70
2021/08/30 05:27:51;;;;;;;10.93;8.65;;;14.00;99.90;;;;;;4951311;28;20115;-84
2021/08/30 05:30:19;;;;;;;10.40;9.02;;;14.00;99.90;;;;;;4952973;28;20048;-72
2021/08/30 05:32:46;;;;;;;13.38;8.13;;;14.10;99.90;;;;;;4952383;28;20057;-74
2021/08/30 05:35:13;;;;;;;14.02;7.38;;;14.10;99.90;;;;;;4952695;28;20082;-68
2021/08/30 05:37:41;;;;;;;10.38;8.38;;;14.10;99.90;;;;;;4950814;28;20051;-77
2021/08/30 05:40:08;;;;;;;12.35;8.48;;;14.10;99.90;;;;;;4952592;28;20098;-76
2021/08/30 05:42:35;;;;;;;10.48;8.07;;;14.10;99.90;;;;;;4952187;28;20574;-76
2021/08/30 05:45:02;;;;;;;17.58;8.55;;;14.10;99.90;;;;;;4952477;28;20518;-70
2021/08/30 05:47:29;;;;;;;11.05;8.88;;;14.20;99.90;;;;;;4952217;28;20048;-71
2021/08/30 05:49:56;;;;;;;10.48;6.75;;;14.20;99.90;;;;;;4965656;28;20075;-72
2021/08/30 05:52:25;;;;;;;11.20;7.53;;;14.30;99.90;;;;;;4952059;28;20535;-77
2021/08/30 05:54:52;;;;;;;9.20;7.05;;;14.30;99.90;;;;;;4952291;28;20105;-68
2021/08/30 05:57:20;;;;;;;10.98;6.43;;;14.30;99.90;;;;;;4954939;28;20051;-66
2021/08/30 05:59:47;;;;;;;10.32;6.25;;;14.30;99.90;;;;;;4954608;28;20064;-75
2021/08/30 06:02:14;;;;;;;9.57;7.22;;;14.40;99.90;;;;;;4955720;28;20047;-66
2021/08/30 06:04:41;;;;;;;8.55;6.30;;;14.40;99.90;;;;;;4956062;28;20039;-77
2021/08/30 06:07:08;;;;;;;6.40;5.70;;;14.40;99.90;;;;;;4956041;28;20051;-75
2021/08/30 06:09:35;;;;;;;10.80;5.85;;;14.40;99.90;;;;;;4955880;28;20051;-68
2021/08/30 06:12:02;;;;;;;7.85;6.10;;;14.40;99.90;;;;;;4954637;28;20113;-71
2021/08/30 06:14:30;;;;;;;7.28;5.65;;;14.40;99.90;;;;;;4955868;28;20497;-78
2021/08/30 06:16:57;;;;;;;10.10;6.50;;;14.40;99.90;;;;;;4955862;28;20437;-70
2021/08/30 06:19:23;;;;;;;7.30;6.05;;;14.40;99.90;;;;;;4956250;28;20083;-67
2021/08/30 06:21:50;;;;;;;9.27;6.68;;;14.40;99.90;;;;;;4954271;28;20077;-74
2021/08/30 06:24:17;;;;;;;9.32;6.20;;;14.40;99.90;;;;;;4955841;28;20490;-68
2021/08/30 06:26:44;;;;;;;8.68;6.68;;;14.40;99.90;;;;;;4956118;28;20081;-72
2021/08/30 06:29:11;;;;;;;8.52;5.70;;;14.50;99.90;;;;;;4955862;28;20062;-71
2021/08/30 06:31:38;;;;;;;8.35;5.60;;;14.50;99.90;;;;;;4956013;28;20055;-68
2021/08/30 06:34:05;;;;;;;9.65;6.03;;;14.50;99.90;;;;;;4953989;28;20055;-68
2021/08/30 06:36:32;;;;;;;11.45;6.65;;;14.50;99.90;;;;;;4955435;28;20051;-70
2021/08/30 06:39:00;;;;;;;14.60;7.28;;;14.50;99.90;;;;;;4955551;28;20078;-67
2021/08/30 06:41:28;;;;;;;7.38;6.53;;;14.50;99.90;;;;;;4955709;28;20085;-70
2021/08/30 06:43:55;;;;;;;7.43;6.65;;;14.60;99.90;;;;;;4954208;28;20130;-75
2021/08/30 06:46:22;;;;;;;10.95;7.68;;;14.60;99.90;;;;;;4955252;28;20493;-80
2021/08/30 06:48:49;;;;;;;11.35;7.03;;;14.70;99.90;;;;;;4955469;28;20453;-72
2021/08/30 06:51:16;;;;;;;12.25;6.07;;;14.70;99.90;;;;;;4955278;28;20054;-68
2021/08/30 06:53:43;;;;;;;13.32;6.85;;;14.80;99.90;;;;;;4953461;28;20047;-66
2021/08/30 06:56:10;;;;;;;5.03;4.38;;;14.80;99.90;;;;;;4954739;28;20077;-70
2021/08/30 06:58:37;;;;;;;10.80;7.00;;;14.90;99.90;;;;;;4955209;28;20043;-74
2021/08/30 07:01:04;;;;;;;8.82;6.18;;;14.90;99.90;;;;;;4955251;28;20103;-67
2021/08/30 07:03:31;;;;;;;7.60;6.32;;;14.90;99.90;;;;;;4955430;28;20051;-70
2021/08/30 07:05:58;;;;;;;7.55;5.38;;;14.90;99.90;;;;;;4954165;28;20067;-71
2021/08/30 07:08:25;;;;;;;7.90;6.75;;;14.90;99.90;;;;;;4954540;28;20093;-67
2021/08/30 07:10:51;;;;;;;7.38;5.38;;;14.90;99.90;;;;;;4953590;28;20097;-82
2021/08/30 07:13:18;;;;;;;7.65;6.15;;;14.90;99.90;;;;;;4954914;28;20051;-75
2021/08/30 07:15:47;;;;;;;7.82;5.32;;;14.90;99.90;;;;;;4953298;28;20106;-80
2021/08/30 07:18:15;;;;;;;7.50;6.35;;;14.80;99.90;;;;;;4954697;28;20101;-67
2021/08/30 07:20:42;;;;;;;9.07;6.57;;;14.80;99.90;;;;;;4954740;28;20047;-81
2021/08/30 07:23:10;;;;;;;12.50;8.25;;;14.80;99.90;;;;;;4954923;28;20051;-67
2021/08/30 07:25:37;;;;;;;10.45;5.43;;;14.80;99.90;;;;;;4954880;28;20078;-70
2021/08/30 07:28:04;;;;;;;5.90;5.30;;;14.80;99.90;;;;;;4953257;28;20059;-77
2021/08/30 07:30:31;;;;;;;7.47;5.47;;;14.90;99.90;;;;;;4954866;28;20047;-72
2021/08/30 07:32:58;;;;;;;15.38;6.88;;;15.00;99.90;;;;;;4954394;28;20051;-71
2021/08/30 07:35:25;;;;;;;8.95;6.25;;;15.00;99.90;;;;;;4954617;28;20090;-68
2021/08/30 07:37:52;;;;;;;6.93;5.47;;;15.00;99.90;;;;;;4952953;28;20051;-69
2021/08/30 07:40:19;;;;;;;8.43;6.10;;;15.10;99.90;;;;;;4954346;28;20339;-67
2021/08/30 07:42:49;;;;;;;;;;;15.00;99.90;;;;;;4954765;28;20051;-73
2021/08/30 07:45:16;;;;;;;8.65;4.95;;;15.10;99.90;;;;;;4954261;28;20002;-74
2021/08/30 07:47:43;;;;;;;9.02;5.72;;;15.10;99.90;;;;;;4952865;28;20418;-71
2021/08/30 07:50:11;;;;;;;8.18;4.95;;;15.10;99.90;;;;;;4954267;28;20051;-79
2021/08/30 07:52:38;;;;;;;7.35;5.85;;;15.10;99.90;;;;;;4954259;28;20392;-69
2021/08/30 07:55:07;;;;;;;7.30;6.55;;;15.10;99.90;;;;;;4954236;28;20078;-75
2021/08/30 07:57:34;;;;;;;6.90;5.35;;;15.00;99.90;;;;;;4954067;28;20051;-70
2021/08/30 08:00:01;;;;;;;7.47;5.18;;;15.00;99.90;;;;;;4952806;28;20047;-67
2021/08/30 08:02:37;;;;;;;7.72;5.10;;;15.00;99.90;;;;;;4953624;28;20082;-78
2021/08/30 08:05:05;;;;;;;7.97;6.35;;;15.00;99.90;;;;;;4954177;28;20083;-71
2021/08/30 08:07:33;;;;;;;9.68;5.25;;;15.00;99.90;;;;;;4954061;28;20102;-69
2021/08/30 08:10:00;;;;;;;7.20;5.35;;;15.00;99.90;;;;;;4952025;28;20154;-73
2021/08/30 08:12:27;;;;;;;7.70;4.60;;;15.10;99.90;;;;;;4953841;28;20075;-74
2021/08/30 08:14:54;;;;;;;7.00;6.18;;;15.10;99.90;;;;;;4953894;28;20043;-66
2021/08/30 08:17:20;;;;;;;7.20;5.35;;;15.20;99.90;;;;;;4953694;28;20171;-74
2021/08/30 08:19:47;;;;;;;8.05;6.97;;;15.20;99.90;;;;;;4951221;28;20106;-75
2021/08/30 08:22:14;;;;;;;8.75;6.25;;;15.20;99.90;;;;;;4953715;28;20453;-69
2021/08/30 08:24:41;;;;;;;7.10;6.03;;;15.20;99.90;;;;;;4953674;28;20048;-70
2021/08/30 08:27:08;;;;;;;8.30;5.80;;;15.20;99.90;;;;;;4953716;28;20051;-67
2021/08/30 08:29:35;;;;;;;9.57;6.63;;;15.20;99.90;;;;;;4953554;28;20093;-70
2021/08/30 08:32:02;;;;;;;9.43;6.60;;;15.20;99.90;;;;;;4952395;28;20067;-73
2021/08/30 08:34:29;;;;;;;7.43;6.03;;;15.20;99.90;;;;;;4953275;28;20050;-74
2021/08/30 08:37:05;;;;;;;9.05;6.30;;;15.20;99.90;;;;;;4953236;28;20074;-84
2021/08/30 08:39:32;;;;;;;8.55;6.70;;;15.30;99.90;;;;;;4953725;28;20527;-73
2021/08/30 08:41:59;;;;;;;9.18;6.55;;;15.30;99.90;;;;;;4951715;28;20066;-68
2021/08/30 08:44:27;;;;;;;9.38;6.07;;;15.40;99.90;;;;;;4953288;28;20055;-71
2021/08/30 08:46:55;;;;;;;7.22;5.72;;;15.50;99.90;;;;;;4953027;28;20520;-77
2021/08/30 08:49:23;;;;;;;10.68;6.50;;;15.50;99.90;;;;;;4953588;28;20044;-70
2021/08/30 08:51:50;;;;;;;6.70;5.90;;;15.60;99.90;;;;;;4951480;28;20090;-76
2021/08/30 08:54:17;;;;;;;14.55;6.22;;;15.50;99.90;;;;;;4952711;28;20073;-76
2021/08/30 08:56:44;;;;;;;8.07;5.47;;;15.50;99.90;;;;;;4952937;28;20437;-69
2021/08/30 08:59:11;;;;;;;10.43;5.10;;;15.50;99.90;;;;;;4967709;28;20518;-67
2021/08/30 09:01:40;;;;;;;9.25;6.22;;;15.50;99.90;;;;;;4953053;28;20097;-70
2021/08/30 09:04:08;;;;;;;8.23;5.55;;;15.40;99.90;;;;;;4951507;28;20073;-73
2021/08/30 09:06:41;;;;;;;5.82;5.22;;;15.40;99.90;;;;;;4953069;28;20118;-75
2021/08/30 09:09:11;;;;;;;9.20;6.78;;;15.50;99.90;;;;;;4953116;28;20055;-67
2021/08/30 09:11:44;;;;;;;9.67;6.63;;;15.50;99.90;;;;;;4953398;28;20446;-82
2021/08/30 09:14:18;;;;;;;6.60;5.47;;;15.50;99.90;;;;;;4951739;28;20133;-78
2021/08/30 09:16:46;;;;;;;10.65;5.10;;;15.50;99.90;;;;;;4953047;28;20142;-67
2021/08/30 09:19:16;;;;;;;6.45;5.03;;;15.60;99.90;;;;;;4953087;28;20152;-69
2021/08/30 09:21:49;;;;;;;9.30;6.55;;;15.60;99.90;;;;;;4951714;28;20453;-73
2021/08/30 09:24:24;;;;;;;8.43;7.13;;;15.70;99.90;;;;;;4952993;28;20450;-70
2021/08/30 09:26:54;;;;;;;7.43;5.75;;;15.80;99.90;;;;;;4952964;28;20047;-71
2021/08/30 09:29:24;;;;;;;7.32;6.35;;;15.90;99.90;;;;;;4953261;28;20411;-66
2021/08/30 09:32:10;;;;;;;9.77;5.63;;;15.90;99.90;;;;;;4953110;28;20485;-68
2021/08/30 09:34:44;;;;;;;9.32;5.75;;;15.90;99.90;;;;;;4956706;28;20392;-67
2021/08/30 09:37:23;;;;;;;8.60;6.50;;;15.80;99.90;;;;;;4956829;28;20102;-67
2021/08/30 09:39:57;;;;;;;8.25;6.15;;;15.80;99.90;;;;;;4955397;28;20043;-73
2021/08/30 09:42:25;;;;;;;7.53;5.65;;;15.80;99.90;;;;;;4956423;28;20457;-68
2021/08/30 09:44:56;;;;;;;7.45;6.07;;;15.80;99.90;;;;;;4956354;28;20078;-69
2021/08/30 09:47:23;;;;;;;8.02;5.57;;;15.80;99.90;;;;;;4956574;28;20437;-72
2021/08/30 09:49:52;;;;;;;8.95;6.70;;;15.80;99.90;;;;;;4955214;28;20392;-70
2021/08/30 09:52:20;;;;;;;7.60;5.95;;;15.90;99.90;;;;;;4956329;28;20047;-77
2021/08/30 09:54:48;;;;;;;8.82;6.57;;;15.90;99.90;;;;;;4956257;28;20142;-69
2021/08/30 09:57:16;;;;;;;6.88;5.07;;;15.90;99.90;;;;;;4956413;28;20442;-72
2021/08/30 09:59:44;;;;;;;7.82;5.75;;;15.90;99.90;;;;;;4954389;28;20591;-73
2021/08/30 10:02:16;;;;;;;9.20;6.70;;;15.90;99.90;;;;;;4955913;28;20055;-69
2021/08/30 10:04:46;;;;;;;6.47;5.07;;;15.90;99.90;;;;;;4956000;28;20134;-69
2021/08/30 10:07:17;;;;;;;9.07;6.47;;;16.10;99.90;;;;;;4955839;28;20127;-69
2021/08/30 10:09:45;;;;;;;7.13;5.57;;;16.20;99.90;;;;;;4954631;28;20047;-71
2021/08/30 10:12:12;;;;;;;11.40;6.45;;;16.20;99.90;;;;;;4955885;28;20086;-71
2021/08/30 10:14:39;;;;;;;8.05;6.25;;;16.20;99.90;;;;;;4956328;28;20051;-77
2021/08/30 10:17:06;;;;;;;12.73;7.35;;;16.10;99.90;;;;;;4955804;28;20067;-70
2021/08/30 10:19:35;;;;;;;8.20;6.30;;;15.90;99.90;;;;;;4955911;28;20078;-69
2021/08/30 10:22:19;;;;;;;8.18;6.43;;;15.90;99.90;;;;;;4955389;28;20114;-72
2021/08/30 10:24:47;;;;;;;7.95;6.75;;;15.80;99.90;;;;;;4956411;28;20106;-75
2021/08/30 10:27:15;;;;;;;16.13;6.20;;;15.80;99.90;;;;;;4955877;28;20051;-73
2021/08/30 10:29:44;;;;;;;9.70;6.50;;;15.70;99.90;;;;;;4953954;28;20110;-74
2021/08/30 10:32:23;;;;;;;10.77;6.18;;;15.60;99.90;;;;;;4956218;28;20054;-67
2021/08/30 10:34:56;;;;;;;6.55;5.80;;;15.70;99.90;;;;;;4955650;28;20461;-71
2021/08/30 10:37:23;;;;;;;8.77;6.13;;;15.70;99.90;;;;;;4955459;28;20048;-72
2021/08/30 10:39:52;;;;;;;7.35;5.50;;;15.70;99.90;;;;;;4953847;28;20129;-74
2021/08/30 10:42:20;;;;;;;8.88;6.38;;;15.70;99.90;;;;;;4954971;28;20055;-66
2021/08/30 10:44:55;;;;;;;8.68;5.75;;;15.90;99.90;;;;;;4954758;28;20051;-67
2021/08/30 10:47:24;;;;;;;7.38;6.38;;;15.80;99.90;;;;;;4955420;28;20442;-72
2021/08/30 10:49:53;;;;;;;9.75;5.68;;;15.90;99.90;;;;;;4953822;28;20047;-71
2021/08/30 10:52:20;;;;;;;7.22;5.97;;;15.80;99.90;;;;;;4955275;28;20494;-70
2021/08/30 10:54:52;;;;;;;7.50;6.25;;;15.90;99.90;;;;;;4955419;28;20089;-71
2021/08/30 10:57:40;;;;;;;6.53;5.93;;;16.00;99.90;;;;;;4955008;28;20051;-72
2021/08/30 11:00:10;;;;;;;6.78;5.53;;;16.00;99.90;;;;;;4953951;28;20102;-71
2021/08/30 11:02:49;;;;;;;9.75;5.45;;;16.10;99.90;;;;;;4955070;28;20063;-69
2021/08/30 11:05:28;;;;;;;11.70;6.65;;;16.10;99.90;;;;;;4954120;28;20051;-71
2021/08/30 11:07:55;;;;;;;12.68;6.53;;;16.20;99.90;;;;;;4953570;28;20051;-67
2021/08/30 11:10:25;;;;;;;7.15;5.60;;;16.20;99.90;;;;;;4954884;28;20489;-70
2021/08/30 11:12:54;;;;;;;9.07;6.10;;;16.20;99.90;;;;;;4955067;28;20047;-66
2021/08/30 11:15:22;;;;;;;7.93;7.05;;;16.20;99.90;;;;;;4954874;28;20055;-67
2021/08/30 11:17:48;;;;;;;8.70;5.68;;;16.30;99.90;;;;;;4953172;28;20063;-70
2021/08/30 11:20:17;;;;;;;9.48;5.78;;;16.40;99.90;;;;;;4954484;28;20441;-67
2021/08/30 11:22:55;;;;;;;6.15;5.55;;;16.40;99.90;;;;;;4954717;28;20093;-68
2021/08/30 11:25:23;;;;;;;7.47;5.88;;;16.30;99.90;;;;;;4954867;28;20047;-71
2021/08/30 11:27:50;;;;;;;5.93;5.22;;;16.30;99.90;;;;;;4953422;28;20407;-72
2021/08/30 11:30:19;;;;;;;6.68;5.72;;;16.40;99.90;;;;;;4954670;28;20051;-67
2021/08/30 11:32:50;;;;;;;10.88;5.45;;;16.40;99.90;;;;;;4954362;28;20540;-72
2021/08/30 11:35:17;;;;;;;6.00;5.25;;;16.40;99.90;;;;;;4954228;28;20070;-69
2021/08/30 11:37:44;;;;;;;7.10;4.78;;;16.40;99.90;;;;;;4952832;28;20059;-69
2021/08/30 11:40:14;;;;;;;5.78;5.10;;;16.40;99.90;;;;;;4954397;28;20071;-76
2021/08/30 11:42:42;;;;;;;5.93;4.90;;;16.40;99.90;;;;;;4954390;28;20052;-68
2021/08/30 11:45:11;;;;;;;6.45;5.68;;;16.40;99.90;;;;;;4954442;28;20305;-68
2021/08/30 11:47:39;;;;;;;9.27;5.55;;;16.20;99.90;;;;;;4954509;28;20061;-68
2021/08/30 11:50:09;;;;;;;9.18;6.05;;;16.20;99.90;;;;;;4952732;28;20094;-69
2021/08/30 11:52:40;;;;;;;;;;;16.40;99.90;;;;;;4954585;28;20051;-71
2021/08/30 11:55:07;;;;;;;;;;;16.50;99.90;;;;;;4954412;28;20293;-68
2021/08/30 11:57:43;;;;;;;9.23;5.65;;;16.70;99.90;;;;;;4954198;28;20318;-72
2021/08/30 12:00:14;;;;;;;6.63;5.28;;;16.70;99.90;;;;;;4952565;28;20414;-67
2021/08/30 12:02:41;;;;;;;5.60;4.75;;;16.70;99.90;;;;;;4953743;28;20047;-70
2021/08/30 12:05:09;;;;;;;7.55;4.88;;;16.80;99.90;;;;;;4953734;28;20051;-71
2021/08/30 12:07:37;;;;;;;7.88;4.82;;;16.80;99.90;;;;;;4954266;28;20074;-69
2021/08/30 12:10:08;;;;;;;4.60;4.03;;;16.80;99.90;;;;;;4952423;28;20175;-73
2021/08/30 12:12:51;;;;;;;7.70;6.38;;;16.80;99.90;;;;;;4954025;28;20047;-67
2021/08/30 12:15:23;;;;;;;5.80;4.53;;;16.80;99.90;;;;;;4953787;28;20054;-71
2021/08/30 12:17:55;;;;;;;6.53;4.65;;;17.00;99.90;;;;;;4952070;28;20052;-68
2021/08/30 12:20:56;;;;;;;6.10;4.55;;;17.10;99.90;;;;;;4953745;28;20086;-70
2021/08/30 12:23:24;;;;;;;8.07;5.95;;;17.10;99.90;;;;;;4948771;28;20051;-67
2021/08/30 12:25:52;;;;;;;5.88;5.30;;;17.10;99.90;;;;;;4952079;28;20094;-77
2021/08/30 12:28:19;;;;;;;8.30;5.80;;;17.10;99.90;;;;;;4953236;28;20055;-71
2021/08/30 12:30:48;;;;;;;8.20;5.43;;;17.10;99.90;;;;;;4953535;28;20138;-81
2021/08/30 12:33:20;;;;;;;8.30;5.78;;;17.00;99.90;;;;;;4953411;28;20138;-71
2021/08/30 12:35:50;;;;;;;6.13;4.97;;;16.90;99.90;;;;;;4951627;28;20556;-73
2021/08/30 12:38:21;;;;;;;6.10;5.20;;;17.00;99.90;;;;;;4953041;28;20097;-71
2021/08/30 12:40:55;;;;;;;8.57;5.85;;;17.20;99.90;;;;;;4953324;28;20609;-77
2021/08/30 12:43:23;;;;;;;8.25;6.05;;;17.30;99.90;;;;;;4953422;28;20047;-69
2021/08/30 12:45:51;;;;;;;11.05;5.43;;;17.40;99.90;;;;;;4951677;28;20059;-74
2021/08/30 12:48:18;;;;;;;18.35;5.70;;;17.40;99.90;;;;;;4953187;28;20117;-69
2021/08/30 12:50:47;;;;;;;6.82;5.63;;;17.50;99.90;;;;;;4952867;28;20067;-75
2021/08/30 12:53:14;;;;;;;7.70;5.95;;;17.60;99.90;;;;;;4952970;28;20081;-73
2021/08/30 12:55:41;;;;;;;6.10;5.18;;;17.70;99.90;;;;;;4951455;28;20071;-67